Observation data for Hereford on 04/22/2019      Previous  Date  Next       Current Mesonet Observations  Soil Data  Daily Summary Page  Observations in Plain Language
KHES 220500Z 25005KT 11/03 A2991 RMK A01 T01060034  RH  062%=      5-min Rain = 0
KHES 220505Z 25006KT 10/04 A2991 RMK A01 T00990037  RH  067%=      5-min Rain = 0
KHES 220510Z 24006KT 10/03 A299 RMK A01 T01000032  RH  064%=      5-min Rain = 0
KHES 220515Z 23005KT 11/03 A2991 RMK A01 T01120028  RH  057%=      5-min Rain = 0
KHES 220520Z 22003KT 11/03 A2991 RMK A01 T01120025  RH  056%=      5-min Rain = 0
KHES 220525Z 23003KT 13/02 A2991 RMK A01 T01280018  RH  048%=      5-min Rain = 0
KHES 220530Z 20001KT 12/03 A2991 RMK A01 T01170027  RH  055%=      5-min Rain = 0
KHES 220535Z 24003KT 13/02 A2991 RMK A01 T01250018  RH  049%=      5-min Rain = 0
KHES 220540Z 26003KT 13/02 A2991 RMK A01 T01270019  RH  048%=      5-min Rain = 0
KHES 220545Z 27004KT 12/03 A2991 RMK A01 T01160025  RH  055%=      5-min Rain = 0
KHES 220550Z 29004KT 11/02 A2991 RMK A01 T01080023  RH  057%=      5-min Rain = 0
KHES 220555Z 29003KT 11/02 A2992 RMK A01 T01120022  RH  055%=      5-min Rain = 0
KHES 220600Z 30003KT 11/02 A2992 RMK A01 T01090022  RH  056%=      5-min Rain = 0
KHES 220605Z 31002KT 11/02 A2992 RMK A01 T01070022  RH  056%=      5-min Rain = 0
KHES 220610Z 32002KT 10/03 A2992 RMK A01 T01010025  RH  060%=      5-min Rain = 0
KHES 220615Z 31002KT 10/03 A2992 RMK A01 T00960026  RH  063%=      5-min Rain = 0
KHES 220620Z 31002KT 09/03 A2992 RMK A01 T00920025  RH  064%=      5-min Rain = 0
KHES 220625Z 32003KT 09/02 A2992 RMK A01 T00880023  RH  065%=      5-min Rain = 0
KHES 220630Z 32006KT 09/02 A2992 RMK A01 T00900021  RH  063%=      5-min Rain = 0
KHES 220635Z 31006KT 09/02 A2992 RMK A01 T00910022  RH  063%=      5-min Rain = 0
KHES 220640Z 31005KT 08/03 A2992 RMK A01 T00840026  RH  068%=      5-min Rain = 0
KHES 220645Z 31006KT 08/03 A2992 RMK A01 T00780029  RH  072%=      5-min Rain = 0
KHES 220650Z 30005KT 08/03 A2992 RMK A01 T00750029  RH  074%=      5-min Rain = 0
KHES 220655Z 29005KT 08/03 A2992 RMK A01 T00780025  RH  071%=      5-min Rain = 0
KHES 220700Z 29007KT 08/03 A2992 RMK A01 T00830026  RH  068%=      5-min Rain = 0
KHES 220705Z 28007KT 08/03 A2992 RMK A01 T00810027  RH  070%=      5-min Rain = 0
KHES 220710Z 28008KT 08/03 A2991 RMK A01 T00790028  RH  072%=      5-min Rain = 0
KHES 220715Z 27007KT 08/03 A2991 RMK A01 T00770030  RH  074%=      5-min Rain = 0
KHES 220720Z 26008KT 08/03 A2991 RMK A01 T00790028  RH  072%=      5-min Rain = 0
KHES 220725Z 27009KT 08/03 A299 RMK A01 T00780027  RH  071%=      5-min Rain = 0
KHES 220730Z 27010KT 08/03 A299 RMK A01 T00770026  RH  071%=      5-min Rain = 0
KHES 220735Z 31011KT 08/03 A2992 RMK A01 T00820025  RH  068%=      5-min Rain = 0
KHES 220740Z 34011G17KT 09/02 A2993 RMK A01 T00870022  RH  065%=      5-min Rain = 0
KHES 220745Z 33011KT 11/02 A2993 RMK A01 T01090018  RH  054%=      5-min Rain = 0
KHES 220750Z 33011KT 11/02 A2993 RMK A01 T01090019  RH  055%=      5-min Rain = 0
KHES 220755Z 34010KT 10/02 A2993 RMK A01 T01020023  RH  059%=      5-min Rain = 0
KHES 220800Z 35010KT 11/02 A2994 RMK A01 T01050019  RH  056%=      5-min Rain = 0
KHES 220805Z 35010KT 11/02 A2994 RMK A01 T01090017  RH  054%=      5-min Rain = 0
KHES 220810Z 00009KT 11/02 A2994 RMK A01 T01070021  RH  056%=      5-min Rain = 0
KHES 220815Z 00009KT 11/03 A2994 RMK A01 T01050025  RH  058%=      5-min Rain = 0
KHES 220820Z 01007KT 10/03 A2995 RMK A01 T01000027  RH  061%=      5-min Rain = 0
KHES 220825Z 02006KT 10/03 A2995 RMK A01 T00950029  RH  065%=      5-min Rain = 0
KHES 220830Z 01007KT 09/03 A2996 RMK A01 T00920032  RH  067%=      5-min Rain = 0
KHES 220835Z 01008KT 09/04 A2996 RMK A01 T00890035  RH  070%=      5-min Rain = 0
KHES 220840Z 01008KT 09/04 A2996 RMK A01 T00870038  RH  073%=      5-min Rain = 0
KHES 220845Z 01008KT 08/04 A2996 RMK A01 T00840040  RH  076%=      5-min Rain = 0
KHES 220850Z 36009KT 09/05 A2996 RMK A01 T00860046  RH  077%=      5-min Rain = 0
KHES 220855Z 35009KT 09/05 A2996 RMK A01 T00900047  RH  076%=      5-min Rain = 0
KHES 220900Z 36008KT 09/05 A2996 RMK A01 T00930048  RH  075%=      5-min Rain = 0
KHES 220905Z 00008KT 09/05 A2996 RMK A01 T00920049  RH  076%=      5-min Rain = 0
KHES 220910Z 36007KT 09/05 A2997 RMK A01 T00920049  RH  076%=      5-min Rain = 0
KHES 220915Z 00007KT 09/05 A2997 RMK A01 T00910050  RH  077%=      5-min Rain = 0
KHES 220920Z 01006KT 09/05 A2998 RMK A01 T00880049  RH  078%=      5-min Rain = 0
KHES 220925Z 01006KT 08/05 A2998 RMK A01 T00820047  RH  080%=      5-min Rain = 0
KHES 220930Z 00006KT 08/05 A2998 RMK A01 T00810048  RH  081%=      5-min Rain = 0
KHES 220935Z 01006KT 08/05 A2998 RMK A01 T00810048  RH  081%=      5-min Rain = 0
KHES 220940Z 01007KT 08/05 A2998 RMK A01 T00820047  RH  081%=      5-min Rain = 0
KHES 220945Z 01007KT 08/05 A2999 RMK A01 T00800047  RH  082%=      5-min Rain = 0
KHES 220950Z 01008KT 08/05 A2999 RMK A01 T00800048  RH  082%=      5-min Rain = 0
KHES 220955Z 01008KT 08/05 A2999 RMK A01 T00800049  RH  082%=      5-min Rain = 0
KHES 221000Z 01007KT 08/05 A2999 RMK A01 T00800049  RH  083%=      5-min Rain = 0
KHES 221005Z 02006KT 08/05 A2999 RMK A01 T00780048  RH  083%=      5-min Rain = 0
KHES 221010Z 01006KT 08/05 A2999 RMK A01 T00760047  RH  084%=      5-min Rain = 0
KHES 221015Z 02006KT 08/05 A30 RMK A01 T00750047  RH  084%=      5-min Rain = 0
KHES 221020Z 02006KT 07/05 A30 RMK A01 T00730045  RH  084%=      5-min Rain = 0
KHES 221025Z 02006KT 07/05 A3001 RMK A01 T00720045  RH  085%=      5-min Rain = 0
KHES 221030Z 02005KT 07/05 A3001 RMK A01 T00730046  RH  084%=      5-min Rain = 0
KHES 221035Z 02004KT 08/05 A3001 RMK A01 T00750046  RH  084%=      5-min Rain = 0
KHES 221040Z 03003KT 07/05 A3002 RMK A01 T00740047  RH  084%=      5-min Rain = 0
KHES 221045Z 03004KT 08/05 A3002 RMK A01 T00760047  RH  084%=      5-min Rain = 0
KHES 221050Z 02004KT 08/05 A3002 RMK A01 T00770047  RH  083%=      5-min Rain = 0
KHES 221055Z 01005KT 08/05 A3002 RMK A01 T00780047  RH  083%=      5-min Rain = 0
KHES 221100Z 02005KT 07/04 A3002 RMK A01 T00720043  RH  084%=      5-min Rain = 0
KHES 221105Z 02006KT 07/04 A3002 RMK A01 T00690042  RH  085%=      5-min Rain = 0
KHES 221110Z 01007KT 07/04 A3002 RMK A01 T00660041  RH  086%=      5-min Rain = 0
KHES 221115Z 01006KT 07/04 A3002 RMK A01 T00650043  RH  087%=      5-min Rain = 0
KHES 221120Z 03004KT 07/04 A3003 RMK A01 T00660043  RH  087%=      5-min Rain = 0
KHES 221125Z 01005KT 07/04 A3003 RMK A01 T00680043  RH  085%=      5-min Rain = 0
KHES 221130Z 02005KT 07/04 A3003 RMK A01 T00650040  RH  085%=      5-min Rain = 0
KHES 221135Z 01006KT 06/04 A3003 RMK A01 T00640040  RH  086%=      5-min Rain = 0
KHES 221140Z 01006KT 06/04 A3003 RMK A01 T00640040  RH  087%=      5-min Rain = 0
KHES 221145Z 02006KT 07/04 A3003 RMK A01 T00650043  RH  088%=      5-min Rain = 0
KHES 221150Z 02007KT 07/05 A3003 RMK A01 T00670045  RH  087%=      5-min Rain = 0
KHES 221155Z 02006KT 07/05 A3003 RMK A01 T00680046  RH  088%=      5-min Rain = 0
KHES 221200Z 03007KT 07/05 A3003 RMK A01 T00700048  RH  088%=      5-min Rain = 0
KHES 221205Z 02007KT 07/05 A3003 RMK A01 T00700048  RH  088%=      5-min Rain = 0
KHES 221210Z 02007KT 07/05 A3003 RMK A01 T00700050  RH  089%=      5-min Rain = 0
KHES 221215Z 02008KT 07/05 A3003 RMK A01 T00700050  RH  089%=      5-min Rain = 0
KHES 221220Z 01008KT 07/05 A3004 RMK A01 T00710052  RH  090%=      5-min Rain = 0
KHES 221225Z 01008KT 07/05 A3004 RMK A01 T00700052  RH  090%=      5-min Rain = 0
KHES 221230Z 01008KT 07/05 A3004 RMK A01 T00710054  RH  091%=      5-min Rain = 0
KHES 221235Z 02008KT 07/06 A3005 RMK A01 T00720056  RH  091%=      5-min Rain = 0
KHES 221240Z 02008KT 08/06 A3005 RMK A01 T00750058  RH  091%=      5-min Rain = 0
KHES 221245Z 02009KT 08/06 A3005 RMK A01 T00780060  RH  090%=      5-min Rain = 0
KHES 221250Z 01009KT 08/06 A3006 RMK A01 T00800062  RH  090%=      5-min Rain = 0
KHES 221255Z 02010KT 08/06 A3006 RMK A01 T00820063  RH  090%=      5-min Rain = 0
KHES 221300Z 01010KT 08/07 A3006 RMK A01 T00840065  RH  090%=      5-min Rain = 0
KHES 221305Z 01010KT 09/07 A3007 RMK A01 T00860066  RH  090%=      5-min Rain = 0
KHES 221310Z 01011KT 09/07 A3007 RMK A01 T00880068  RH  090%=      5-min Rain = 0
KHES 221315Z 00011KT 09/07 A3008 RMK A01 T00900070  RH  089%=      5-min Rain = 0
KHES 221320Z 00012KT 09/07 A3008 RMK A01 T00910070  RH  089%=      5-min Rain = 0
KHES 221325Z 00012KT 09/07 A3008 RMK A01 T00930070  RH  088%=      5-min Rain = 0
KHES 221330Z 00013KT 09/07 A3008 RMK A01 T00940070  RH  088%=      5-min Rain = 0
KHES 221335Z 01014KT 09/07 A3009 RMK A01 T00940070  RH  087%=      5-min Rain = 0
KHES 221340Z 01013KT 10/07 A3009 RMK A01 T00950071  RH  087%=      5-min Rain = 0
KHES 221345Z 01015KT 10/07 A3009 RMK A01 T00960070  RH  086%=      5-min Rain = 0
KHES 221350Z 01016KT 10/07 A3009 RMK A01 T00960070  RH  086%=      5-min Rain = 0
KHES 221355Z 02016G21KT 10/07 A3009 RMK A01 T00980071  RH  086%=      5-min Rain = 0
KHES 221400Z 02015G21KT 10/07 A301 RMK A01 T01000072  RH  085%=      5-min Rain = 0
KHES 221405Z 02014G19KT 10/07 A3011 RMK A01 T01020073  RH  084%=      5-min Rain = 0
KHES 221410Z 02014KT 10/07 A3011 RMK A01 T01020072  RH  084%=      5-min Rain = 0
KHES 221415Z 02018G23KT 10/07 A3011 RMK A01 T01020071  RH  083%=      5-min Rain = 0
KHES 221420Z 02019KT 10/07 A3011 RMK A01 T01020071  RH  083%=      5-min Rain = 0
KHES 221425Z 03016G22KT 10/07 A301 RMK A01 T01030071  RH  083%=      5-min Rain = 0
KHES 221430Z 02018KT 10/07 A301 RMK A01 T01040071  RH  082%=      5-min Rain = 0
KHES 221435Z 02017G22KT 10/07 A301 RMK A01 T01040071  RH  082%=      5-min Rain = 0
KHES 221440Z 02016G21KT 11/07 A3011 RMK A01 T01060072  RH  081%=      5-min Rain = 0
KHES 221445Z 02017G24KT 11/07 A3011 RMK A01 T01070072  RH  081%=      5-min Rain = 0
KHES 221450Z 02017G23KT 11/07 A3011 RMK A01 T01070072  RH  081%=      5-min Rain = 0
KHES 221455Z 02017G23KT 11/07 A3011 RMK A01 T01090072  RH  080%=      5-min Rain = 0
KHES 221500Z 03017KT 11/07 A3011 RMK A01 T01080071  RH  080%=      5-min Rain = 0
KHES 221505Z 02018G23KT 11/07 A3011 RMK A01 T01070070  RH  080%=      5-min Rain = 0
KHES 221510Z 03018G23KT 11/07 A3011 RMK A01 T01070070  RH  080%=      5-min Rain = 0
KHES 221515Z 02017G22KT 11/07 A3011 RMK A01 T01080070  RH  080%=      5-min Rain = 0
KHES 221520Z 02016G21KT 11/07 A3011 RMK A01 T01100071  RH  079%=      5-min Rain = 0
KHES 221525Z 03016G23KT 11/07 A3011 RMK A01 T01100071  RH  079%=      5-min Rain = 0
KHES 221530Z 02016KT 11/07 A3011 RMK A01 T01090071  RH  079%=      5-min Rain = 0
KHES 221535Z 02015G20KT 11/07 A3011 RMK A01 T01110071  RH  079%=      5-min Rain = 0
KHES 221540Z 02016G21KT 11/07 A3011 RMK A01 T01120071  RH  078%=      5-min Rain = 0
KHES 221545Z 02017KT 11/07 A3011 RMK A01 T01130072  RH  077%=      5-min Rain = 0
KHES 221550Z 03015G21KT 11/07 A3011 RMK A01 T01140072  RH  077%=      5-min Rain = 0
KHES 221555Z 03014KT 12/07 A3011 RMK A01 T01160072  RH  077%=      5-min Rain = 0
KHES 221600Z 02016KT 12/07 A3011 RMK A01 T01170072  RH  076%=      5-min Rain = 0
KHES 221605Z 02016G21KT 12/07 A3011 RMK A01 T01170072  RH  076%=      5-min Rain = 0
KHES 221610Z 02016KT 12/07 A3011 RMK A01 T01200073  RH  075%=      5-min Rain = 0
KHES 221615Z 03015G21KT 12/07 A3012 RMK A01 T01200072  RH  074%=      5-min Rain = 0
KHES 221620Z 02016G21KT 12/07 A3012 RMK A01 T01210072  RH  074%=      5-min Rain = 0
KHES 221625Z 02016KT 12/07 A3012 RMK A01 T01220073  RH  074%=      5-min Rain = 0
KHES 221630Z 03015G20KT 12/07 A3012 RMK A01 T01230072  RH  073%=      5-min Rain = 0
KHES 221635Z 03015G21KT 12/07 A3012 RMK A01 T01240071  RH  072%=      5-min Rain = 0
KHES 221640Z 02015KT 13/07 A3012 RMK A01 T01250072  RH  072%=      5-min Rain = 0
KHES 221645Z 02016KT 13/07 A3012 RMK A01 T01260072  RH  072%=      5-min Rain = 0
KHES 221650Z 02015KT 13/07 A3012 RMK A01 T01280073  RH  071%=      5-min Rain = 0
KHES 221655Z 01014KT 13/07 A3014 RMK A01 T01310074  RH  070%=      5-min Rain = 0
KHES 221700Z 02013G19KT 13/07 A3014 RMK A01 T01320074  RH  070%=      5-min Rain = 0
KHES 221705Z 01014G20KT 13/07 A3014 RMK A01 T01320073  RH  069%=      5-min Rain = 0
KHES 221710Z 02014G20KT 13/07 A3014 RMK A01 T01310071  RH  069%=      5-min Rain = 0
KHES 221715Z 03015G21KT 13/07 A3013 RMK A01 T01290070  RH  069%=      5-min Rain = 0
KHES 221720Z 01018KT 13/07 A3013 RMK A01 T01300070  RH  069%=      5-min Rain = 0
KHES 221725Z 02016KT 13/07 A3013 RMK A01 T01320071  RH  068%=      5-min Rain = 0
KHES 221730Z 02016G21KT 13/07 A3012 RMK A01 T01340072  RH  068%=      5-min Rain = 0
KHES 221735Z 03018G23KT 14/07 A3011 RMK A01 T01370072  RH  066%=      5-min Rain = 0
KHES 221740Z 03017G22KT 14/07 A3011 RMK A01 T01410074  RH  066%=      5-min Rain = 0
KHES 221745Z 03015G21KT 14/07 A3012 RMK A01 T01430074  RH  065%=      5-min Rain = 0
KHES 221750Z 02016G21KT 14/07 A3012 RMK A01 T01420073  RH  065%=      5-min Rain = 0
KHES 221755Z 02018G23KT 15/08 A3011 RMK A01 T01470076  RH  064%=      5-min Rain = 0
KHES 221800Z 01020KT 15/08 A301 RMK A01 T01490075  RH  063%=      5-min Rain = 0
KHES 221805Z 01021G26KT 16/08 A301 RMK A01 T01560078  RH  061%=      5-min Rain = 0
KHES 221810Z 01015G20KT 15/07 A3013 RMK A01 T01520074  RH  061%=      5-min Rain = 0
KHES 221815Z 01015KT 15/07 A3013 RMK A01 T01510074  RH  062%=      5-min Rain = 0
KHES 221820Z 02012G18KT 15/07 A3013 RMK A01 T01510074  RH  062%=      5-min Rain = 0
KHES 221825Z 03016G23KT 15/07 A3012 RMK A01 T01520072  RH  060%=      5-min Rain = 0
KHES 221830Z 02020G26KT 15/07 A301 RMK A01 T01500071  RH  061%=      5-min Rain = 0
KHES 221835Z 03019G25KT 15/07 A301 RMK A01 T01500070  RH  060%=      5-min Rain = 0
KHES 221840Z 02017G23KT 15/07 A301 RMK A01 T01510071  RH  060%=      5-min Rain = 0
KHES 221845Z 02017G22KT 15/07 A301 RMK A01 T01530073  RH  061%=      5-min Rain = 0
KHES 221850Z 03016KT 15/07 A3011 RMK A01 T01540072  RH  059%=      5-min Rain = 0
KHES 221855Z 03019G25KT 16/07 A3009 RMK A01 T01550069  RH  058%=      5-min Rain = 0
KHES 221900Z 04019G25KT 16/07 A3009 RMK A01 T01550070  RH  059%=      5-min Rain = 0
KHES 221905Z 02023G30KT 16/07 A3008 RMK A01 T01550070  RH  058%=      5-min Rain = 0
KHES 221910Z 03021G28KT 16/07 A3008 RMK A01 T01580071  RH  058%=      5-min Rain = 0
KHES 221915Z 03020KT 16/07 A3008 RMK A01 T01590072  RH  058%=      5-min Rain = 0
KHES 221920Z 03017G23KT 16/07 A3008 RMK A01 T01590072  RH  058%=      5-min Rain = 0
KHES 221925Z 02020G26KT 16/07 A3008 RMK A01 T01590072  RH  058%=      5-min Rain = 0
KHES 221930Z 02022G29KT 16/07 A3007 RMK A01 T01570069  RH  057%=      5-min Rain = 0
KHES 221935Z 02018G24KT 16/07 A3008 RMK A01 T01560069  RH  058%=      5-min Rain = 0
KHES 221940Z 02017G24KT 15/07 A3009 RMK A01 T01540069  RH  058%=      5-min Rain = 0
KHES 221945Z 03015G22KT 15/07 A301 RMK A01 T01540069  RH  058%=      5-min Rain = 0
KHES 221950Z 05009G15KT 15/07 A3013 RMK A01 T01540071  RH  059%=      5-min Rain = 0
KHES 221955Z 04012G18KT 16/07 A3012 RMK A01 T01560072  RH  059%=      5-min Rain = 0
KHES 222000Z 04014G19KT 16/07 A3012 RMK A01 T01560071  RH  058%=      5-min Rain = 0
KHES 222005Z 03013KT 16/07 A3012 RMK A01 T01570071  RH  058%=      5-min Rain = 0
KHES 222010Z 04014KT 16/07 A3012 RMK A01 T01580072  RH  058%=      5-min Rain = 0
KHES 222015Z 04015G21KT 16/08 A301 RMK A01 T01590075  RH  059%=      5-min Rain = 0
KHES 222020Z 04017G23KT 16/07 A3009 RMK A01 T01590073  RH  058%=      5-min Rain = 0
KHES 222025Z 04020G26KT 16/07 A3009 RMK A01 T01580072  RH  058%=      5-min Rain = 0
KHES 222030Z 04019G27KT 16/07 A3008 RMK A01 T01560071  RH  058%=      5-min Rain = 0
KHES 222035Z 04016G24KT 16/07 A3009 RMK A01 T01550070  RH  058%=      5-min Rain = 0
KHES 222040Z 07010G17KT 16/07 A3013 RMK A01 T01560071  RH  058%=      5-min Rain = 0
KHES 222045Z 05015G21KT 16/07 A3011 RMK A01 T01560071  RH  058%=      5-min Rain = 0
KHES 222050Z 04014G19KT 16/07 A3011 RMK A01 T01560072  RH  059%=      5-min Rain = 0
KHES 222055Z 05014G19KT 16/07 A3011 RMK A01 T01560074  RH  060%=      5-min Rain = 0
KHES 222100Z 05017G23KT 16/07 A301 RMK A01 T01560073  RH  059%=      5-min Rain = 0
KHES 222105Z 04016G23KT 16/07 A301 RMK A01 T01570073  RH  059%=      5-min Rain = 0
KHES 222110Z 05019G25KT 16/07 A3009 RMK A01 T01560072  RH  059%=      5-min Rain = 0
KHES 222115Z 04017G24KT 16/07 A3009 RMK A01 T01560073  RH  059%=      5-min Rain = 0
KHES 222120Z 05014G20KT 16/08 A301 RMK A01 T01560075  RH  060%=      5-min Rain = 0
KHES 222125Z 04013G19KT 16/07 A301 RMK A01 T01570074  RH  059%=      5-min Rain = 0
KHES 222130Z 04015KT 16/07 A301 RMK A01 T01570073  RH  059%=      5-min Rain = 0
KHES 222135Z 04012G17KT 16/07 A3011 RMK A01 T01570074  RH  059%=      5-min Rain = 0
KHES 222140Z 05014G19KT 16/08 A301 RMK A01 T01580075  RH  059%=      5-min Rain = 0
KHES 222145Z 04016G22KT 16/07 A301 RMK A01 T01570071  RH  058%=      5-min Rain = 0
KHES 222150Z 05013G19KT 16/07 A3011 RMK A01 T01560071  RH  058%=      5-min Rain = 0
KHES 222155Z 04013G18KT 16/07 A3011 RMK A01 T01570072  RH  059%=      5-min Rain = 0
KHES 222200Z 04014G20KT 16/07 A301 RMK A01 T01560071  RH  058%=      5-min Rain = 0
KHES 222205Z 04013G21KT 16/07 A301 RMK A01 T01560072  RH  059%=      5-min Rain = 0
KHES 222210Z 05013G19KT 16/07 A301 RMK A01 T01550072  RH  059%=      5-min Rain = 0
KHES 222215Z 04013KT 15/08 A301 RMK A01 T01540075  RH  061%=      5-min Rain = 0
KHES 222220Z 04013KT 15/07 A301 RMK A01 T01530074  RH  061%=      5-min Rain = 0
KHES 222225Z 04012KT 15/08 A301 RMK A01 T01520075  RH  061%=      5-min Rain = 0
KHES 222230Z 05011G16KT 15/08 A3011 RMK A01 T01520075  RH  062%=      5-min Rain = 0
KHES 222235Z 07010KT 15/08 A3012 RMK A01 T01520076  RH  062%=      5-min Rain = 0
KHES 222240Z 06010G15KT 15/08 A3011 RMK A01 T01520080  RH  064%=      5-min Rain = 0
KHES 222245Z 06012KT 15/08 A3011 RMK A01 T01490081  RH  066%=      5-min Rain = 0
KHES 222250Z 05012G17KT 15/08 A3011 RMK A01 T01480081  RH  066%=      5-min Rain = 0
KHES 222255Z 05012KT 15/08 A3011 RMK A01 T01470084  RH  068%=      5-min Rain = 0
KHES 222300Z 05011KT 15/08 A3011 RMK A01 T01460084  RH  068%=      5-min Rain = 0
KHES 222305Z 05009KT 15/09 A3011 RMK A01 T01460087  RH  070%=      5-min Rain = 0
KHES 222310Z 06007KT 15/09 A3012 RMK A01 T01460088  RH  070%=      5-min Rain = 0
KHES 222315Z 07009KT 15/09 A3012 RMK A01 T01450086  RH  070%=      5-min Rain = 0
KHES 222320Z 07010KT 14/09 A3012 RMK A01 T01430086  RH  070%=      5-min Rain = 0
KHES 222325Z 07011KT 14/09 A3011 RMK A01 T01410086  RH  071%=      5-min Rain = 0
KHES 222330Z 08012KT 14/09 A3011 RMK A01 T01390086  RH  072%=      5-min Rain = 0
KHES 222335Z 07011G16KT 14/09 A3011 RMK A01 T01380085  RH  073%=      5-min Rain = 0
KHES 222340Z 08009KT 14/09 A3012 RMK A01 T01360086  RH  074%=      5-min Rain = 0
KHES 222345Z 10009KT 13/09 A3012 RMK A01 T01340088  RH  076%=      5-min Rain = 0
KHES 222350Z 10009KT 13/09 A3013 RMK A01 T01330089  RH  077%=      5-min Rain = 0
KHES 222355Z 11009KT 13/09 A3013 RMK A01 T01320092  RH  079%=      5-min Rain = 0.01
KHES 230000Z 10009KT 13/10 A3013 RMK A01 T01290095  RH  082%=      5-min Rain = 0
KHES 230005Z 10009KT 13/10 A3013 RMK A01 T01270095  RH  084%=      5-min Rain = 0
KHES 230010Z 10008KT 13/10 A3013 RMK A01 T01250096  RH  085%=      5-min Rain = 0.01
KHES 230015Z 09008KT 12/10 A3012 RMK A01 T01240096  RH  085%=      5-min Rain = 0
KHES 230020Z 09008KT 12/10 A3012 RMK A01 T01230097  RH  086%=      5-min Rain = 0
KHES 230025Z 09010KT 12/10 A3012 RMK A01 T01230096  RH  086%=      5-min Rain = 0.01
KHES 230030Z 07009KT 12/10 A3012 RMK A01 T01220095  RH  086%=      5-min Rain = 0
KHES 230035Z 07010KT 12/09 A3011 RMK A01 T01220093  RH  085%=      5-min Rain = 0
KHES 230040Z 07010KT 12/09 A3011 RMK A01 T01210093  RH  086%=      5-min Rain = 0.01
KHES 230045Z 06010KT 12/09 A3011 RMK A01 T01200094  RH  087%=      5-min Rain = 0.01
KHES 230050Z 06009KT 12/10 A3011 RMK A01 T01190095  RH  088%=      5-min Rain = 0.01
KHES 230055Z 06009G14KT 12/10 A3011 RMK A01 T01180095  RH  089%=      5-min Rain = 0
KHES 230100Z 06010KT 12/10 A3011 RMK A01 T01170095  RH  089%=      5-min Rain = 0
KHES 230105Z 05011KT 12/10 A3011 RMK A01 T01170096  RH  090%=      5-min Rain = 0.01
KHES 230110Z 05010KT 12/10 A3011 RMK A01 T01160096  RH  090%=      5-min Rain = 0
KHES 230115Z 05010KT 12/10 A301 RMK A01 T01150096  RH  091%=      5-min Rain = 0.01
KHES 230120Z 04011G16KT 11/10 A301 RMK A01 T01140096  RH  091%=      5-min Rain = 0
KHES 230125Z 04012KT 11/10 A301 RMK A01 T01140095  RH  091%=      5-min Rain = 0
KHES 230130Z 04012KT 11/09 A301 RMK A01 T01130094  RH  091%=      5-min Rain = 0
KHES 230135Z 04012KT 11/09 A301 RMK A01 T01130093  RH  090%=      5-min Rain = 0
KHES 230140Z 04011KT 11/09 A301 RMK A01 T01120093  RH  091%=      5-min Rain = 0
KHES 230145Z 04011KT 11/09 A301 RMK A01 T01120092  RH  090%=      5-min Rain = 0
KHES 230150Z 04012G17KT 11/09 A301 RMK A01 T01120091  RH  090%=      5-min Rain = 0
KHES 230155Z 05011KT 11/09 A301 RMK A01 T01110091  RH  090%=      5-min Rain = 0
KHES 230200Z 05010KT 11/09 A3011 RMK A01 T01110091  RH  090%=      5-min Rain = 0
KHES 230205Z 05010KT 11/09 A3011 RMK A01 T01110091  RH  090%=      5-min Rain = 0
KHES 230210Z 05009KT 11/09 A3011 RMK A01 T01110092  RH  091%=      5-min Rain = 0
KHES 230215Z 05009KT 11/09 A3011 RMK A01 T01110092  RH  091%=      5-min Rain = 0
KHES 230220Z 05010KT 11/09 A3011 RMK A01 T01110091  RH  090%=      5-min Rain = 0
KHES 230225Z 04009KT 11/09 A3011 RMK A01 T01110092  RH  091%=      5-min Rain = 0
KHES 230230Z 04009KT 11/09 A3011 RMK A01 T01100092  RH  091%=      5-min Rain = 0
KHES 230235Z 04008KT 11/09 A3011 RMK A01 T01100092  RH  092%=      5-min Rain = 0
KHES 230240Z 04009KT 11/09 A3011 RMK A01 T01100091  RH  091%=      5-min Rain = 0
KHES 230245Z 04009KT 11/09 A3011 RMK A01 T01090091  RH  091%=      5-min Rain = 0
KHES 230250Z 04010KT 11/09 A3011 RMK A01 T01080090  RH  091%=      5-min Rain = 0
KHES 230255Z 03009KT 11/09 A3011 RMK A01 T01080090  RH  092%=      5-min Rain = 0
KHES 230300Z 03009KT 11/09 A3012 RMK A01 T01070090  RH  092%=      5-min Rain = 0
KHES 230305Z 04008KT 11/09 A3012 RMK A01 T01060090  RH  092%=      5-min Rain = 0
KHES 230310Z 03008KT 11/09 A3012 RMK A01 T01060090  RH  093%=      5-min Rain = 0
KHES 230315Z 03009KT 11/09 A3012 RMK A01 T01050090  RH  093%=      5-min Rain = 0
KHES 230320Z 03009KT 10/09 A3012 RMK A01 T01040089  RH  093%=      5-min Rain = 0
KHES 230325Z 03008KT 10/09 A3012 RMK A01 T01040089  RH  093%=      5-min Rain = 0
KHES 230330Z 04007KT 10/09 A3012 RMK A01 T01030089  RH  093%=      5-min Rain = 0
KHES 230335Z 04008KT 10/09 A3013 RMK A01 T01020088  RH  094%=      5-min Rain = 0
KHES 230340Z 04008KT 10/09 A3013 RMK A01 T01020088  RH  093%=      5-min Rain = 0
KHES 230345Z 04009KT 10/09 A3013 RMK A01 T01010087  RH  093%=      5-min Rain = 0
KHES 230350Z 05008KT 10/09 A3013 RMK A01 T01000086  RH  094%=      5-min Rain = 0
KHES 230355Z 05008KT 10/09 A3013 RMK A01 T01000086  RH  094%=      5-min Rain = 0
KHES 230400Z 04007KT 10/09 A3013 RMK A01 T01000086  RH  094%=      5-min Rain = 0
KHES 230405Z 04007KT 10/09 A3013 RMK A01 T01000087  RH  094%=      5-min Rain = 0
KHES 230410Z 04007KT 10/09 A3013 RMK A01 T01000087  RH  094%=      5-min Rain = 0
KHES 230415Z 04007KT 10/09 A3012 RMK A01 T01010087  RH  094%=      5-min Rain = 0
KHES 230420Z 04008KT 10/09 A3012 RMK A01 T01010088  RH  095%=      5-min Rain = 0
KHES 230425Z 03009KT 10/09 A3012 RMK A01 T01010088  RH  094%=      5-min Rain = 0
KHES 230430Z 03010KT 10/09 A3011 RMK A01 T01010088  RH  094%=      5-min Rain = 0
KHES 230435Z 03009G14KT 10/09 A3011 RMK A01 T01010088  RH  094%=      5-min Rain = 0
KHES 230440Z 03009KT 10/09 A3011 RMK A01 T01000087  RH  094%=      5-min Rain = 0
KHES 230445Z 03009G14KT 10/09 A3011 RMK A01 T01000087  RH  094%=      5-min Rain = 0
KHES 230450Z 03010KT 10/09 A301 RMK A01 T00990086  RH  094%=      5-min Rain = 0
KHES 230455Z 03011KT 10/09 A301 RMK A01 T00990086  RH  094%=      5-min Rain = 0

Page generated in 0.0241 seconds.